Time;durP1;ratioP1;P1;durP2;ratioP2;P2;SDS_P1;SDS_P2;PMS_P1;PMS_P2;Temp;Humidity;BMP_temperature;BMP_pressure;BME280_temperature;BME280_humidity;BME280_pressure;Samples;Min_cycle;Max_cycle;Signal;HPM_P1;HPM_P2
2021/01/24 00:01:37;;;;;;;40.47;23.52;;;;;;;6.33;62.52;99278.25;4915899;28;124015;-71
2021/01/24 00:04:04;;;;;;;38.92;25.20;;;;;;;6.34;62.52;99279.91;4944405;28;123779;-70
2021/01/24 00:06:30;;;;;;;39.97;23.88;;;;;;;6.33;62.41;99272.97;4946639;28;114233;-71
2021/01/24 00:08:57;;;;;;;36.80;21.15;;;;;;;6.33;62.85;99283.50;4945734;28;113853;-71
2021/01/24 00:11:23;;;;;;;32.67;19.75;;;;;;;6.32;62.68;99286.19;4945778;28;124309;-72
2021/01/24 00:13:50;;;;;;;31.35;18.83;;;;;;;6.32;62.55;99287.03;4943374;28;124833;-71
2021/01/24 00:16:17;;;;;;;33.83;19.75;;;;;;;6.30;62.62;99288.91;4946417;28;114348;-73
2021/01/24 00:18:43;;;;;;;35.70;20.00;;;;;;;6.28;62.65;99296.03;4943069;28;114031;-72
2021/01/24 00:21:10;;;;;;;34.67;20.67;;;;;;;6.28;62.72;99293.41;4943758;28;124331;-72
2021/01/24 00:23:37;;;;;;;34.15;19.88;;;;;;;6.28;62.59;99298.66;4942465;28;123713;-72
2021/01/24 00:26:03;;;;;;;33.70;19.23;;;;;;;6.28;62.51;99296.03;4924126;28;115415;-72
2021/01/24 00:28:30;;;;;;;37.05;19.90;;;;;;;6.28;62.47;99306.53;4943252;28;113995;-73
2021/01/24 00:30:57;;;;;;;33.58;19.80;;;;;;;6.25;62.80;99301.44;4923631;28;122802;-71
2021/01/24 00:33:23;;;;;;;31.73;20.10;;;;;;;6.25;62.47;99311.94;4930050;28;123917;-72
2021/01/24 00:35:50;;;;;;;34.08;19.13;;;;;;;6.26;62.73;99313.66;4931473;28;113019;-73
2021/01/24 00:38:16;;;;;;;27.67;16.52;;;;;;;6.26;62.54;99311.03;4934765;28;113757;-72
2021/01/24 00:40:43;;;;;;;29.20;15.15;;;;;;;6.25;62.67;99311.94;4945083;28;124121;-72
2021/01/24 00:43:09;;;;;;;28.30;15.32;;;;;;;6.23;62.49;99308.56;4930228;28;124536;-72
2021/01/24 00:45:36;;;;;;;21.70;13.48;;;;;;;6.20;62.23;99321.88;4934194;28;114373;-72
2021/01/24 00:48:03;;;;;;;21.50;11.40;;;;;;;6.17;62.42;99324.66;4944539;28;113892;-72
2021/01/24 00:50:29;;;;;;;18.55;11.18;;;;;;;6.13;62.43;99323.09;4944824;28;123953;-72
2021/01/24 00:52:57;;;;;;;21.35;10.95;;;;;;;6.12;62.42;99326.66;4946429;28;123659;-71
2021/01/24 00:55:23;;;;;;;22.45;10.52;;;;;;;6.10;62.55;99333.75;4927039;28;114117;-72
2021/01/24 00:57:50;;;;;;;20.58;10.15;;;;;;;6.08;62.61;99325.94;4933391;28;114588;-72
2021/01/24 01:00:17;;;;;;;18.23;9.73;;;;;;;6.08;62.54;99335.63;4941843;28;123995;-72
2021/01/24 01:02:44;;;;;;;20.80;9.45;;;;;;;6.06;62.53;99332.22;4940916;28;123871;-71
2021/01/24 01:05:11;;;;;;;14.32;8.55;;;;;;;6.06;62.53;99334.84;4941247;28;114307;-71
2021/01/24 01:07:37;;;;;;;17.35;7.75;;;;;;;6.01;62.39;99351.72;4933821;28;113961;-72
2021/01/24 01:10:05;;;;;;;13.10;7.20;;;;;;;5.99;62.33;99336.94;4943015;28;123824;-72
2021/01/24 01:12:32;;;;;;;13.50;6.53;;;;;;;5.94;62.27;99345.03;4942601;28;124580;-72
2021/01/24 01:14:59;;;;;;;12.30;6.35;;;;;;;5.94;62.37;99345.03;4942620;28;115703;-72
2021/01/24 01:17:25;;;;;;;12.45;6.05;;;;;;;5.89;62.38;99341.78;4943401;28;114639;-72
2021/01/24 01:19:52;;;;;;;11.30;5.00;;;;;;;5.86;62.25;99352.44;4943880;28;124665;-72
2021/01/24 01:22:19;;;;;;;8.50;4.88;;;;;;;5.82;62.45;99356.13;4921236;28;123902;-72
2021/01/24 01:24:45;;;;;;;8.57;4.35;;;;;;;5.78;62.25;99359.84;4944233;28;114258;-72
2021/01/24 01:27:12;;;;;;;9.40;4.68;;;;;;;5.74;62.47;99359.13;4941924;28;114063;-72
2021/01/24 01:29:39;;;;;;;11.63;4.57;;;;;;;5.71;62.36;99364.56;4931181;28;124377;-72
2021/01/24 01:32:06;;;;;;;11.95;4.85;;;;;;;5.66;62.24;99362.16;4931199;28;123203;-71
2021/01/24 01:34:32;;;;;;;11.50;4.70;;;;;;;5.62;62.26;99368.47;4941100;28;113306;-72
2021/01/24 01:36:59;;;;;;;8.70;5.35;;;;;;;5.58;62.10;99377.44;4942996;28;114501;-72
2021/01/24 01:39:26;;;;;;;9.65;4.97;;;;;;;5.54;62.37;99378.50;4933641;28;122960;-71
2021/01/24 01:41:52;;;;;;;10.60;4.95;;;;;;;5.48;62.33;99378.78;4934770;28;123493;-71
2021/01/24 01:44:19;;;;;;;10.18;5.40;;;;;;;5.45;62.29;99378.94;4918248;28;114064;-72
2021/01/24 01:46:48;;;;;;;12.57;5.40;;;;;;;5.41;62.23;99385.28;4944754;28;115037;-73
2021/01/24 01:49:17;;;;;;;13.80;5.75;;;;;;;5.38;62.23;99382.78;4945693;28;122774;-72
2021/01/24 01:51:46;;;;;;;10.07;5.28;;;;;;;5.37;62.37;99391.56;4944665;28;124083;-72
2021/01/24 01:54:13;;;;;;;11.40;5.53;;;;;;;5.35;62.58;99389.03;4946780;28;113711;-72
2021/01/24 01:56:40;;;;;;;9.02;5.43;;;;;;;5.35;62.59;99398.66;4914097;28;113475;-71
2021/01/24 01:59:07;;;;;;;12.10;5.50;;;;;;;5.34;62.67;99397.81;4944101;28;124572;-71
2021/01/24 02:01:55;;;;;;;10.05;5.22;;;;;;;5.32;62.72;99396.22;4919522;28;122086;-71
2021/01/24 02:04:38;;;;;;;11.18;5.32;;;;;;;5.30;62.92;99405.94;4948787;28;115412;-72
2021/01/24 02:07:19;;;;;;;9.65;5.22;;;;;;;5.30;62.77;99406.78;4928757;28;115372;-71
2021/01/24 02:10:01;;;;;;;8.48;5.00;;;;;;;5.30;62.98;99400.69;4947616;28;123654;-71
2021/01/24 02:12:47;;;;;;;8.23;4.70;;;;;;;5.32;62.69;99398.84;4928908;28;122768;-72
2021/01/24 02:15:21;;;;;;;9.10;4.47;;;;;;;5.33;62.81;99400.50;4935444;28;112414;-71
2021/01/24 02:17:55;;;;;;;10.07;4.38;;;;;;;5.33;63.19;99405.75;4945907;28;113013;-72
2021/01/24 02:20:49;;;;;;;8.13;4.53;;;;;;;5.33;63.06;99406.63;4942378;28;124235;-71
2021/01/24 02:23:21;;;;;;;9.02;4.32;;;;;;;5.35;62.81;99411.78;4944984;28;121891;-71
2021/01/24 02:25:59;;;;;;;10.02;4.32;;;;;;;5.36;63.14;99416.97;4939757;28;114212;-72
2021/01/24 02:28:50;;;;;;;9.55;4.72;;;;;;;5.38;62.85;99419.53;4945231;28;113722;-71
2021/01/24 02:31:19;;;;;;;10.80;4.63;;;;;;;5.39;63.02;99426.50;4920442;28;123395;-72
2021/01/24 02:33:49;;;;;;;11.90;5.25;;;;;;;5.39;63.07;99424.72;4946404;28;123709;-72
2021/01/24 02:36:18;;;;;;;9.68;5.38;;;;;;;5.40;62.93;99428.19;4939953;28;115225;-72
2021/01/24 02:38:45;;;;;;;10.68;4.88;;;;;;;5.41;63.09;99429.91;4944728;28;114033;-72
2021/01/24 02:41:14;;;;;;;11.18;5.50;;;;;;;5.40;62.88;99428.19;4933441;28;123672;-72
2021/01/24 02:43:45;;;;;;;13.20;5.75;;;;;;;5.42;62.85;99431.59;4942222;28;124840;-73
2021/01/24 02:46:14;;;;;;;15.45;5.70;;;;;;;5.44;63.13;99435.00;4942755;28;114180;-72
2021/01/24 02:48:45;;;;;;;14.65;6.03;;;;;;;5.46;63.01;99435.78;4932481;28;113053;-73
2021/01/24 02:51:16;;;;;;;13.10;6.00;;;;;;;5.48;63.25;99447.06;4930934;28;124003;-71
2021/01/24 02:53:45;;;;;;;14.07;5.97;;;;;;;5.50;62.92;99445.25;4930308;28;124428;-72
2021/01/24 02:56:13;;;;;;;14.68;6.07;;;;;;;5.54;63.13;99445.91;4917336;28;114536;-72
2021/01/24 02:58:41;;;;;;;9.73;5.95;;;;;;;5.58;63.12;99448.34;4932095;28;114395;-71
2021/01/24 03:01:07;;;;;;;13.32;6.70;;;;;;;5.61;63.14;99439.47;4932712;28;124343;-72
2021/01/24 03:03:34;;;;;;;12.65;6.53;;;;;;;5.64;63.02;99458.56;4939864;28;124128;-72
2021/01/24 03:06:01;;;;;;;12.05;6.28;;;;;;;5.71;63.23;99453.00;4943186;28;114615;-72
2021/01/24 03:08:28;;;;;;;12.32;7.15;;;;;;;5.75;62.92;99454.59;4940177;28;113769;-73
2021/01/24 03:10:55;;;;;;;16.58;7.03;;;;;;;5.77;63.04;99452.72;4930172;28;124101;-72
2021/01/24 03:13:27;;;;;;;13.05;6.32;;;;;;;5.82;62.81;99461.22;4943753;28;123983;-72
2021/01/24 03:15:55;;;;;;;16.30;6.88;;;;;;;5.85;63.11;99458.47;4931891;28;113310;-72
2021/01/24 03:18:26;;;;;;;13.82;7.40;;;;;;;5.90;62.78;99466.97;4937431;28;113806;-72
2021/01/24 03:20:54;;;;;;;10.90;6.32;;;;;;;5.93;62.80;99469.44;4937723;28;124407;-73
2021/01/24 03:23:22;;;;;;;12.05;6.53;;;;;;;5.95;62.82;99467.66;4940259;28;123924;-73
2021/01/24 03:25:50;;;;;;;13.80;6.82;;;;;;;5.97;62.81;99476.31;4941011;28;114392;-73
2021/01/24 03:28:17;;;;;;;16.05;7.78;;;;;;;6.00;62.93;99476.13;4938683;28;114329;-73
2021/01/24 03:30:43;;;;;;;12.77;7.25;;;;;;;6.04;62.81;99476.84;4931666;28;121975;-73
2021/01/24 03:33:10;;;;;;;19.17;7.80;;;;;;;6.05;62.64;99478.56;4929396;28;122789;-72
2021/01/24 03:35:37;;;;;;;16.70;7.32;;;;;;;6.07;62.70;99483.75;4937901;28;114182;-72
2021/01/24 03:38:04;;;;;;;13.60;6.93;;;;;;;6.08;62.71;99488.06;4917960;28;112752;-72
2021/01/24 03:40:31;;;;;;;14.70;7.53;;;;;;;6.10;62.65;99486.22;4926635;28;123209;-73
2021/01/24 03:42:58;;;;;;;14.25;7.97;;;;;;;6.11;62.71;99493.19;4922388;28;121835;-72
2021/01/24 03:45:24;;;;;;;15.60;8.20;;;;;;;6.14;62.86;99485.13;4940133;28;115682;-72
2021/01/24 03:47:51;;;;;;;18.52;8.73;;;;;;;6.16;62.92;99493.78;4937040;28;114584;-73
2021/01/24 03:50:18;;;;;;;19.65;9.40;;;;;;;6.17;62.68;99492.88;4931424;28;123218;-73
2021/01/24 03:52:44;;;;;;;19.02;9.55;;;;;;;6.18;63.02;99499.84;4940098;28;126137;-72
2021/01/24 03:55:11;;;;;;;22.38;10.23;;;;;;;6.17;62.84;99503.41;4939731;28;114499;-72
2021/01/24 03:57:38;;;;;;;22.00;9.88;;;;;;;6.18;62.70;99505.97;4940098;28;114152;-72
2021/01/24 04:00:05;;;;;;;20.42;10.63;;;;;;;6.20;62.99;99498.00;4940305;28;125823;-72
2021/01/24 04:02:38;;;;;;;21.15;10.50;;;;;;;6.21;63.15;99504.94;4931970;28;124994;-72
2021/01/24 04:05:06;;;;;;;21.75;10.85;;;;;;;6.23;62.74;99508.34;4919822;28;113526;-72
2021/01/24 04:07:33;;;;;;;21.10;11.27;;;;;;;6.26;62.84;99508.22;4940391;28;113834;-73
2021/01/24 04:09:59;;;;;;;20.35;10.80;;;;;;;6.29;62.95;99508.06;4941011;28;123942;-72
2021/01/24 04:12:26;;;;;;;22.55;11.07;;;;;;;6.30;62.83;99515.03;4932801;28;122529;-72
2021/01/24 04:14:52;;;;;;;22.15;10.95;;;;;;;6.33;63.24;99519.25;4938707;28;114964;-72
2021/01/24 04:17:19;;;;;;;25.27;11.35;;;;;;;6.33;63.15;99514.88;4940547;28;113799;-73
2021/01/24 04:19:45;;;;;;;20.10;10.55;;;;;;;6.35;62.85;99520.91;4940341;28;124054;-72
2021/01/24 04:22:12;;;;;;;25.42;11.10;;;;;;;6.36;62.97;99519.97;4942594;28;124021;-73
2021/01/24 04:24:39;;;;;;;21.73;10.52;;;;;;;6.38;63.18;99523.38;4938241;28;114313;-72
2021/01/24 04:27:05;;;;;;;23.90;10.65;;;;;;;6.39;62.97;99527.72;4939566;28;113396;-72
2021/01/24 04:29:32;;;;;;;20.50;10.00;;;;;;;6.40;63.16;99526.81;4913950;28;123280;-72
2021/01/24 04:31:59;;;;;;;20.60;10.35;;;;;;;6.42;62.86;99530.22;4940809;28;123419;-72
2021/01/24 04:34:25;;;;;;;20.65;9.80;;;;;;;6.44;63.15;99532.75;4942203;28;114229;-72
2021/01/24 04:36:52;;;;;;;21.33;10.48;;;;;;;6.46;62.95;99535.28;4936540;28;114998;-72
2021/01/24 04:39:18;;;;;;;19.73;10.18;;;;;;;6.46;63.04;99530.03;4939101;28;123740;-72
2021/01/24 04:41:48;;;;;;;22.60;10.65;;;;;;;6.46;62.98;99533.53;4924907;28;124303;-72
2021/01/24 04:44:15;;;;;;;18.23;9.90;;;;;;;6.48;63.05;99533.44;4936608;28;114039;-72
2021/01/24 04:46:44;;;;;;;17.35;9.75;;;;;;;6.49;63.25;99536.00;4921614;28;111934;-72
2021/01/24 04:49:11;;;;;;;24.00;10.55;;;;;;;6.50;62.84;99536.84;4944739;28;124302;-72
2021/01/24 04:51:39;;;;;;;23.67;10.15;;;;;;;6.51;62.85;99543.81;4943792;28;123637;-72
2021/01/24 04:54:06;;;;;;;22.05;10.25;;;;;;;6.50;62.84;99548.25;4944414;28;114264;-73
2021/01/24 04:56:36;;;;;;;21.63;9.73;;;;;;;6.51;62.84;99543.81;4946154;28;113988;-72
2021/01/24 04:59:03;;;;;;;16.27;9.75;;;;;;;6.50;62.60;99542.97;4943836;28;124268;-72
2021/01/24 05:01:32;;;;;;;17.27;9.68;;;;;;;6.49;62.96;99548.31;4926374;28;124794;-72
2021/01/24 05:03:59;;;;;;;20.50;9.68;;;;;;;6.50;62.85;99555.25;4932939;28;113876;-72
2021/01/24 05:06:27;;;;;;;18.60;9.25;;;;;;;6.49;63.02;99556.19;4946125;28;113256;-72
2021/01/24 05:08:58;;;;;;;21.52;9.45;;;;;;;6.49;62.98;99558.81;4943128;28;124200;-73
2021/01/24 05:11:25;;;;;;;19.05;10.07;;;;;;;6.50;63.09;99558.75;4934451;28;124257;-73
2021/01/24 05:13:52;;;;;;;19.98;9.63;;;;;;;6.50;63.06;99563.16;4945245;28;114212;-73
2021/01/24 05:16:23;;;;;;;15.93;8.43;;;;;;;6.51;62.85;99564.88;4913820;28;113425;-73
2021/01/24 05:18:58;;;;;;;18.98;9.10;;;;;;;6.52;62.90;99577.09;4942898;28;123964;-72
2021/01/24 05:21:26;;;;;;;16.85;8.55;;;;;;;6.51;63.14;99565.72;4946230;28;123736;-72
2021/01/24 05:23:56;;;;;;;21.23;9.27;;;;;;;6.51;63.01;99572.75;4941234;28;114992;-72
2021/01/24 05:26:25;;;;;;;15.38;8.95;;;;;;;6.53;63.19;99573.53;4934056;28;113230;-72
2021/01/24 05:28:51;;;;;;;17.02;8.85;;;;;;;6.54;63.29;99572.63;4931902;28;124724;-72
2021/01/24 05:31:21;;;;;;;17.08;8.20;;;;;;;6.55;62.95;99576.94;4924317;28;122709;-72
2021/01/24 05:33:49;;;;;;;17.95;8.93;;;;;;;6.57;63.15;99575.06;4940408;28;115212;-73
2021/01/24 05:36:16;;;;;;;19.55;8.88;;;;;;;6.57;62.90;99575.06;4945716;28;114335;-72
2021/01/24 05:38:42;;;;;;;16.35;8.85;;;;;;;6.58;62.82;99576.78;4929112;28;122940;-72
2021/01/24 05:41:11;;;;;;;15.57;8.48;;;;;;;6.58;63.15;99592.56;4944766;28;123973;-72
2021/01/24 05:43:40;;;;;;;16.38;8.63;;;;;;;6.57;62.93;99590.84;4930966;28;114005;-72
2021/01/24 05:46:09;;;;;;;16.63;8.23;;;;;;;6.57;62.91;99601.38;4919181;28;113207;-72
2021/01/24 05:48:37;;;;;;;20.80;9.20;;;;;;;6.58;63.07;99592.56;4943711;28;123828;-72
2021/01/24 05:51:07;;;;;;;16.35;8.32;;;;;;;6.56;63.15;99599.69;4942194;28;124733;-72
2021/01/24 05:53:38;;;;;;;16.25;8.13;;;;;;;6.57;63.10;99601.38;4942913;28;114394;-72
2021/01/24 05:56:08;;;;;;;17.75;9.57;;;;;;;6.56;63.34;99594.44;4943623;28;113782;-72
2021/01/24 05:58:35;;;;;;;17.15;7.90;;;;;;;6.56;63.17;99595.28;4944590;28;124070;-72
2021/01/24 06:01:02;;;;;;;15.88;7.57;;;;;;;6.57;62.92;99599.63;4941996;28;123043;-72
2021/01/24 06:03:29;;;;;;;13.52;8.25;;;;;;;6.56;63.49;99604.97;4943012;28;114422;-72
2021/01/24 06:05:56;;;;;;;15.60;7.90;;;;;;;6.59;63.29;99610.03;4946612;28;114253;-72
2021/01/24 06:08:22;;;;;;;9.90;6.45;;;;;;;6.60;63.37;99611.75;4931391;28;123195;-72
2021/01/24 06:10:51;;;;;;;10.15;6.28;;;;;;;6.61;63.16;99608.19;4943137;28;124194;-72
2021/01/24 06:13:23;;;;;;;11.82;6.03;;;;;;;6.60;63.15;99617.03;4940889;28;114778;-72
2021/01/24 06:15:57;;;;;;;10.75;6.22;;;;;;;6.61;62.98;99623.97;4943008;28;114274;-73
2021/01/24 06:18:35;;;;;;;9.95;5.75;;;;;;;6.59;62.82;99625.84;4931340;28;123061;-72
2021/01/24 06:21:05;;;;;;;9.32;5.18;;;;;;;6.59;62.89;99631.09;4941422;28;124350;-72
2021/01/24 06:23:39;;;;;;;7.53;5.28;;;;;;;6.58;63.31;99640.78;4930569;28;114183;-73
2021/01/24 06:26:11;;;;;;;7.28;5.18;;;;;;;6.59;63.14;99636.34;4939194;28;113965;-72
2021/01/24 06:28:42;;;;;;;9.23;4.88;;;;;;;6.57;62.76;99644.34;4941701;28;124620;-73
2021/01/24 06:31:19;;;;;;;9.50;4.63;;;;;;;6.58;63.01;99645.19;4939395;28;123905;-72
2021/01/24 06:33:52;;;;;;;6.03;4.70;;;;;;;6.57;63.02;99644.34;4936858;28;114351;-72
2021/01/24 06:36:19;;;;;;;7.03;4.40;;;;;;;6.57;62.79;99651.38;4929100;28;113175;-72
2021/01/24 06:38:54;;;;;;;10.05;4.00;;;;;;;6.55;62.77;99655.84;4931064;28;123870;-73
2021/01/24 06:41:48;;;;;;;6.07;3.90;;;;;;;6.51;62.91;99662.19;4940955;28;124677;-72
2021/01/24 06:44:50;;;;;;;5.28;3.58;;;;;;;6.47;62.52;99652.75;4944240;28;114456;-72
2021/01/24 06:47:36;;;;;;;5.25;3.58;;;;;;;6.43;62.72;99666.03;4850599;29;113267;-72
2021/01/24 06:50:39;;;;;;;5.03;3.28;;;;;;;6.41;62.85;99665.25;4934124;28;124121;-72
2021/01/24 06:53:26;;;;;;;5.90;3.88;;;;;;;6.40;62.56;99683.72;4938698;28;124706;-73
2021/01/24 06:55:55;;;;;;;5.70;3.42;;;;;;;6.39;62.78;99688.13;4916849;28;113231;-73
2021/01/24 06:58:50;;;;;;;5.13;3.17;;;;;;;6.36;62.67;99693.53;4929683;28;113124;-72
2021/01/24 07:01:24;;;;;;;5.35;2.90;;;;;;;6.34;62.73;99700.63;4941734;28;124083;-71
2021/01/24 07:04:25;;;;;;;4.65;3.13;;;;;;;6.30;62.45;99699.06;4939932;28;123885;-72
2021/01/24 07:07:01;;;;;;;5.60;3.00;;;;;;;6.29;62.57;99712.28;4924938;28;115230;-72
2021/01/24 07:09:31;;;;;;;5.78;2.95;;;;;;;6.24;62.76;99709.88;4932372;28;114227;-73
2021/01/24 07:12:05;;;;;;;6.10;2.60;;;;;;;6.23;62.37;99718.66;4927354;28;124549;-73
2021/01/24 07:14:31;;;;;;;4.85;2.58;;;;;;;6.21;62.34;99726.63;4927918;28;123884;-72
2021/01/24 07:17:01;;;;;;;3.85;2.38;;;;;;;6.19;62.27;99738.16;4928179;28;113566;-71
2021/01/24 07:19:29;;;;;;;4.60;2.45;;;;;;;6.16;62.36;99736.50;4941105;28;113324;-72
2021/01/24 07:21:56;;;;;;;4.90;2.30;;;;;;;6.13;62.33;99730.53;4945973;28;125146;-72
2021/01/24 07:24:23;;;;;;;4.53;2.20;;;;;;;6.12;62.44;99736.72;4930519;28;123684;-72
2021/01/24 07:26:53;;;;;;;4.00;2.33;;;;;;;6.11;62.66;99735.00;4916133;28;113860;-72
2021/01/24 07:29:21;;;;;;;6.38;2.70;;;;;;;6.09;62.53;99747.38;4937900;28;114262;-72
2021/01/24 07:31:49;;;;;;;4.20;2.78;;;;;;;6.07;62.53;99752.69;4942853;28;124582;-73
2021/01/24 07:34:20;;;;;;;6.25;3.28;;;;;;;6.04;62.44;99755.44;4938673;28;124026;-73
2021/01/24 07:36:52;;;;;;;5.68;3.00;;;;;;;6.01;62.55;99755.59;4910576;28;112768;-72
2021/01/24 07:39:19;;;;;;;6.30;3.28;;;;;;;5.98;62.55;99756.56;4941777;28;114215;-72
2021/01/24 07:41:47;;;;;;;6.40;3.10;;;;;;;5.97;62.59;99768.03;4939126;28;124040;-72
2021/01/24 07:44:14;;;;;;;7.30;3.50;;;;;;;5.96;62.66;99774.19;4941153;28;125379;-73
2021/01/24 07:46:40;;;;;;;7.20;3.65;;;;;;;5.95;62.51;99772.50;4929436;28;114308;-72
2021/01/24 07:49:07;;;;;;;7.78;3.33;;;;;;;5.94;62.80;99781.25;4937265;28;115305;-73
2021/01/24 07:51:35;;;;;;;5.03;3.60;;;;;;;5.93;62.76;99790.03;4939935;28;123871;-72
2021/01/24 07:54:02;;;;;;;7.25;3.65;;;;;;;5.93;62.52;99794.44;4942387;28;124079;-73
2021/01/24 07:56:28;;;;;;;6.50;4.10;;;;;;;5.92;62.72;99788.34;4942196;28;114784;-73
2021/01/24 07:58:56;;;;;;;7.47;4.95;;;;;;;5.90;62.48;99795.44;4919053;28;114137;-72
2021/01/24 08:01:23;;;;;;;10.35;5.13;;;;;;;5.89;62.84;99793.72;4937672;28;121969;-72
2021/01/24 08:03:50;;;;;;;8.07;4.78;;;;;;;5.90;62.69;99800.69;4919026;28;121366;-72
2021/01/24 08:06:17;;;;;;;8.65;5.00;;;;;;;5.91;62.70;99802.38;4947495;28;113470;-72
2021/01/24 08:08:45;;;;;;;8.13;5.20;;;;;;;5.92;62.72;99808.53;4939451;28;113978;-72
2021/01/24 08:11:12;;;;;;;9.18;4.30;;;;;;;5.92;62.79;99808.53;4928705;28;123746;-72
2021/01/24 08:13:41;;;;;;;5.18;3.67;;;;;;;5.92;62.69;99813.78;4914968;28;124344;-72
2021/01/24 08:16:19;;;;;;;6.22;3.80;;;;;;;5.93;62.89;99821.56;4938271;28;114109;-74
2021/01/24 08:18:50;;;;;;;5.00;3.33;;;;;;;5.93;62.61;99821.56;4929351;28;112874;-73
2021/01/24 08:21:17;;;;;;;5.80;3.47;;;;;;;5.92;62.89;99819.88;4932768;28;122945;-72
2021/01/24 08:23:45;;;;;;;6.45;4.10;;;;;;;5.94;62.92;99823.28;4924392;28;122160;-73
2021/01/24 08:26:12;;;;;;;6.25;3.38;;;;;;;5.94;62.61;99828.56;4935809;28;112810;-72
2021/01/24 08:28:42;;;;;;;6.03;3.15;;;;;;;5.93;62.76;99829.47;4951296;28;114461;-73
2021/01/24 08:31:08;;;;;;;5.60;3.50;;;;;;;5.92;62.82;99842.69;4953501;28;124977;-72
2021/01/24 08:33:36;;;;;;;6.75;3.78;;;;;;;5.92;62.89;99840.06;4948333;28;123927;-73
2021/01/24 08:36:11;;;;;;;5.93;3.53;;;;;;;5.90;62.83;99842.75;4947437;28;114622;-72
2021/01/24 08:38:39;;;;;;;9.45;3.83;;;;;;;5.91;62.83;99849.69;4927792;28;113180;-73
2021/01/24 08:41:05;;;;;;;5.55;3.83;;;;;;;5.93;62.89;99853.09;4926802;28;123944;-73
2021/01/24 08:43:32;;;;;;;7.07;4.63;;;;;;;5.93;63.00;99852.25;4941582;28;125672;-71
2021/01/24 08:46:25;;;;;;;5.63;4.05;;;;;;;5.93;62.73;99852.25;4915713;28;114511;-72
2021/01/24 08:49:04;;;;;;;7.53;4.45;;;;;;;5.93;62.99;99858.38;4942866;28;115517;-72
2021/01/24 08:51:58;;;;;;;8.60;4.68;;;;;;;5.93;62.80;99863.63;4938803;28;124053;-73
2021/01/24 08:54:30;;;;;;;7.13;4.78;;;;;;;5.95;62.94;99867.09;4933509;28;124301;-72
2021/01/24 08:57:14;;;;;;;8.52;4.88;;;;;;;5.95;62.78;99867.09;4930596;28;114185;-72
2021/01/24 08:59:50;;;;;;;6.93;4.78;;;;;;;5.97;63.12;99870.50;4929143;28;114343;-71
2021/01/24 09:02:47;;;;;;;7.32;4.93;;;;;;;5.99;63.14;99871.31;4925559;28;123472;-72
2021/01/24 09:05:26;;;;;;;6.65;5.00;;;;;;;6.03;62.92;99867.63;4925528;28;124089;-73
2021/01/24 09:07:53;;;;;;;8.18;5.68;;;;;;;6.04;63.06;99871.94;4940852;28;114365;-73
2021/01/24 09:10:25;;;;;;;7.95;5.35;;;;;;;6.06;62.80;99873.66;4931590;28;113717;-72
2021/01/24 09:12:56;;;;;;;9.55;5.57;;;;;;;6.04;62.76;99874.56;4943833;28;124205;-72
2021/01/24 09:15:25;;;;;;;7.20;5.65;;;;;;;6.04;62.76;99876.34;4932171;28;124187;-72
2021/01/24 09:17:53;;;;;;;8.52;5.93;;;;;;;6.02;62.70;99879.03;4930238;28;114187;-73
2021/01/24 09:20:22;;;;;;;8.15;5.72;;;;;;;6.03;62.68;99880.75;4918463;28;113373;-72
2021/01/24 09:22:50;;;;;;;9.73;5.72;;;;;;;6.03;62.57;99880.75;4935213;28;123899;-72
2021/01/24 09:25:17;;;;;;;8.43;5.32;;;;;;;6.03;62.68;99886.03;4930227;28;122980;-73
2021/01/24 09:27:43;;;;;;;7.97;5.38;;;;;;;6.06;62.63;99889.44;4940372;28;114118;-72
2021/01/24 09:30:13;;;;;;;8.10;5.30;;;;;;;6.06;62.84;99894.69;4939477;28;113794;-72
2021/01/24 09:32:40;;;;;;;9.63;5.03;;;;;;;6.08;62.93;99882.34;4938517;28;123495;-71
2021/01/24 09:35:07;;;;;;;7.75;4.88;;;;;;;6.09;62.87;99889.31;4938836;28;123783;-72
2021/01/24 09:37:34;;;;;;;8.10;5.07;;;;;;;6.12;62.98;99897.06;4936532;28;115855;-72
2021/01/24 09:40:02;;;;;;;9.30;5.25;;;;;;;6.15;62.96;99891.69;4950329;28;114767;-73
2021/01/24 09:42:29;;;;;;;9.43;4.40;;;;;;;6.18;62.77;99899.44;4949442;28;123321;-72
2021/01/24 09:44:55;;;;;;;10.68;4.57;;;;;;;6.19;62.89;99901.16;4911983;28;123012;-73
2021/01/24 09:47:22;;;;;;;6.97;4.38;;;;;;;6.22;63.12;99901.03;4916911;28;113281;-73
2021/01/24 09:49:49;;;;;;;9.05;4.80;;;;;;;6.24;63.13;99899.19;4939987;28;113921;-73
2021/01/24 09:52:15;;;;;;;6.75;4.50;;;;;;;6.29;63.30;99905.13;4920884;28;123212;-74
2021/01/24 09:54:42;;;;;;;9.13;4.72;;;;;;;6.34;63.10;99911.00;4947253;28;123766;-73
2021/01/24 09:57:09;;;;;;;7.70;4.80;;;;;;;6.38;63.28;99907.31;4949952;28;114478;-72
2021/01/24 09:59:35;;;;;;;7.32;4.60;;;;;;;6.46;63.27;99914.03;4945515;28;114052;-72
2021/01/24 10:02:02;;;;;;;8.82;4.20;;;;;;;6.51;63.00;99922.59;4916360;28;123360;-73
2021/01/24 10:04:28;;;;;;;6.65;4.18;;;;;;;6.55;63.41;99913.63;4943652;28;124528;-73
2021/01/24 10:06:55;;;;;;;9.93;4.30;;;;;;;6.60;63.04;99916.94;4920123;28;114502;-73
2021/01/24 10:09:22;;;;;;;9.20;4.22;;;;;;;6.66;63.08;99921.91;4944011;28;113176;-73
2021/01/24 10:11:49;;;;;;;8.63;4.13;;;;;;;6.71;63.35;99919.09;4900720;28;123345;-73
2021/01/24 10:14:18;;;;;;;6.43;4.00;;;;;;;6.77;63.30;99919.66;4926379;28;123865;-73
2021/01/24 10:16:45;;;;;;;6.65;3.92;;;;;;;6.83;63.15;99918.53;4936317;28;113303;-71
2021/01/24 10:19:12;;;;;;;8.93;4.30;;;;;;;6.92;63.21;99912.03;4937592;28;114198;-72
2021/01/24 10:21:39;;;;;;;6.90;4.22;;;;;;;7.00;63.20;99917.78;4956307;28;124394;-72
2021/01/24 10:24:06;;;;;;;8.25;4.38;;;;;;;7.06;63.18;99912.22;4937064;28;122739;-73
2021/01/24 10:26:32;;;;;;;10.07;4.22;;;;;;;7.13;63.35;99924.19;4932454;28;113898;-72
2021/01/24 10:28:59;;;;;;;7.18;4.20;;;;;;;7.20;63.48;99922.16;4930922;28;113908;-73
2021/01/24 10:31:25;;;;;;;9.88;4.03;;;;;;;7.26;62.96;99921.03;4941614;28;123960;-72
2021/01/24 10:33:52;;;;;;;7.28;4.07;;;;;;;7.34;62.89;99924.13;4933129;28;123911;-74
2021/01/24 10:36:19;;;;;;;4.65;3.58;;;;;;;7.42;63.33;99924.63;4939966;28;114189;-73
2021/01/24 10:38:48;;;;;;;12.50;4.30;;;;;;;7.51;62.90;99932.09;4936684;28;113730;-72
2021/01/24 10:41:14;;;;;;;6.03;3.50;;;;;;;7.58;62.78;99928.25;4933330;28;123496;-73
2021/01/24 10:43:41;;;;;;;8.32;3.50;;;;;;;7.65;62.45;99923.56;4947532;28;124271;-74
2021/01/24 10:46:07;;;;;;;8.23;3.55;;;;;;;7.70;62.34;99929.44;4931924;28;114014;-73
2021/01/24 10:48:34;;;;;;;8.68;3.42;;;;;;;7.76;62.27;99928.28;4947248;28;114394;-75
2021/01/24 10:51:01;;;;;;;10.95;4.00;;;;;;;7.83;62.45;99932.34;4950801;28;123694;-72
2021/01/24 10:53:27;;;;;;;8.88;4.03;;;;;;;7.90;62.66;99928.50;4972605;28;124985;-72
2021/01/24 10:55:54;;;;;;;8.98;4.63;;;;;;;7.99;62.67;99937.75;4969619;28;116393;-71
2021/01/24 10:58:20;;;;;;;9.18;4.00;;;;;;;8.07;62.15;99929.47;4963809;28;114590;-72
2021/01/24 11:00:47;;;;;;;7.10;3.72;;;;;;;8.13;62.08;99939.69;4938084;28;125012;-72
2021/01/24 11:03:14;;;;;;;9.50;3.90;;;;;;;8.18;61.76;99932.41;4946247;28;123913;-73
2021/01/24 11:05:40;;;;;;;10.88;3.95;;;;;;;8.24;61.67;99934.75;4938977;28;114313;-73
2021/01/24 11:08:08;;;;;;;9.68;4.20;;;;;;;8.28;61.70;99936.28;4944665;28;113740;-73
2021/01/24 11:10:35;;;;;;;7.47;4.07;;;;;;;8.30;61.54;99939.69;4940077;28;125053;-73
2021/01/24 11:13:02;;;;;;;11.27;4.88;;;;;;;8.33;61.38;99936.06;4944974;28;125050;-72
2021/01/24 11:15:30;;;;;;;10.95;4.57;;;;;;;8.36;61.66;99936.78;4934909;28;115304;-72
2021/01/24 11:17:57;;;;;;;11.00;4.72;;;;;;;8.41;61.25;99938.31;4939215;28;114815;-72
2021/01/24 11:20:24;;;;;;;8.18;4.60;;;;;;;8.45;61.08;99929.34;4933276;28;123448;-73
2021/01/24 11:22:50;;;;;;;11.85;4.65;;;;;;;8.48;61.36;99931.84;4940682;28;123586;-73
2021/01/24 11:25:17;;;;;;;9.77;5.20;;;;;;;8.54;61.22;99928.88;4944927;28;114859;-72
2021/01/24 11:27:44;;;;;;;11.38;4.57;;;;;;;8.60;60.93;99930.34;4932442;28;114214;-72
2021/01/24 11:30:12;;;;;;;11.20;4.50;;;;;;;8.61;60.40;99927.63;4962368;23;122771;-71
2021/01/24 11:32:39;;;;;;;13.57;5.32;;;;;;;8.64;60.68;99930.09;4943743;28;124183;-70
2021/01/24 11:35:11;;;;;;;10.77;4.97;;;;;;;8.70;60.76;99928.91;4975432;28;114414;-70
2021/01/24 11:37:39;;;;;;;10.45;4.88;;;;;;;8.78;61.02;99932.03;4945037;28;113997;-69